Time;durP1;ratioP1;P1;durP2;ratioP2;P2;SDS_P1;SDS_P2;PMS_P1;PMS_P2;Temp;Humidity;BMP_temperature;BMP_pressure;BME280_temperature;BME280_humidity;BME280_pressure;Samples;Min_cycle;Max_cycle;Signal;HPM_P1;HPM_P2
2023/10/23 00:01:36;;;;;;;;;;;;;;;7.71;100.00;96280.03;5104656;28;19943;-74
2023/10/23 00:04:02;;;;;;;;;;;;;;;7.69;100.00;96274.22;5105731;28;19946;-74
2023/10/23 00:06:28;;;;;;;;;;;;;;;7.66;100.00;96272.00;5106435;28;19932;-74
2023/10/23 00:08:53;;;;;;;;;;;;;;;7.64;100.00;96284.44;5105455;28;19977;-74
2023/10/23 00:11:26;;;;;;;;;;;;;;;7.62;100.00;96286.47;5106096;28;19939;-74
2023/10/23 00:13:52;;;;;;;;;;;;;;;7.59;100.00;96281.66;5105572;28;19935;-73
2023/10/23 00:16:18;;;;;;;;;;;;;;;7.56;100.00;96284.66;5105371;28;20037;-74
2023/10/23 00:18:44;;;;;;;;;;;;;;;7.53;100.00;96278.03;5105990;28;19948;-72
2023/10/23 00:21:10;;;;;;;;;;;;;;;7.48;100.00;96283.06;5106207;28;20325;-72
2023/10/23 00:23:36;;;;;;;;;;;;;;;7.45;100.00;96286.06;5105383;28;20004;-71
2023/10/23 00:26:01;;;;;;;;;;;;;;;7.43;100.00;96291.50;5104731;28;19960;-72
2023/10/23 00:28:27;;;;;;;;;;;;;;;7.43;100.00;96293.28;5105218;28;19962;-72
2023/10/23 00:30:53;;;;;;;;;;;;;;;7.40;100.00;96291.09;5104131;28;19974;-72
2023/10/23 00:33:19;;;;;;;;;;;;;;;7.36;100.00;96282.06;5105138;28;19937;-75
2023/10/23 00:35:45;;;;;;;;;;;;;;;7.35;100.00;96289.09;5105170;28;19964;-74
2023/10/23 00:38:10;;;;;;;;;;;;;;;7.31;100.00;96282.69;5105108;28;19937;-74
2023/10/23 00:40:36;;;;;;;;;;;;;;;7.31;100.00;96293.13;5105861;28;20222;-74
2023/10/23 00:43:14;;;;;;;;;;;;;;;7.31;100.00;96293.91;5104974;28;19943;-74
2023/10/23 00:45:48;;;;;;;;;;;;;;;7.30;100.00;96292.28;5104931;28;19964;-74
2023/10/23 00:48:14;;;;;;;;;;;;;;;7.28;100.00;96285.69;5105616;28;20221;-74
2023/10/23 00:50:40;;;;;;;;;;;;;;;7.27;100.00;96284.09;5105154;28;19945;-74
2023/10/23 00:53:06;;;;;;;;;;;;;;;7.25;100.00;96280.88;5104826;28;19979;-81
2023/10/23 00:55:32;;;;;;;;;;;;;;;7.22;100.00;96279.44;5105334;28;19940;-72
2023/10/23 00:57:58;;;;;;;;;;;;;;;7.22;100.00;96283.88;5105238;28;19934;-72
2023/10/23 01:00:24;;;;;;;;;;;;;;;7.18;100.00;96267.84;5104746;28;19949;-72
2023/10/23 01:02:50;;;;;;;;;;;;;;;7.16;100.00;96272.44;5104325;28;19939;-72
2023/10/23 01:05:16;;;;;;;;;;;;;;;7.14;100.00;96269.25;5103512;28;19943;-72
2023/10/23 01:07:42;;;;;;;;;;;;;;;7.14;100.00;96263.19;5105292;28;20138;-72
2023/10/23 01:10:08;;;;;;;;;;;;;;;7.12;100.00;96263.41;5103464;28;19939;-75
2023/10/23 01:12:33;;;;;;;;;;;;;;;7.09;100.00;96262.00;5104613;28;20153;-72
2023/10/23 01:14:59;;;;;;;;;;;;;;;7.06;100.00;96264.22;5103357;28;19936;-71
2023/10/23 01:17:25;;;;;;;;;;;;;;;7.04;100.00;96266.22;5103269;28;19967;-72
2023/10/23 01:19:51;;;;;;;;;;;;;;;7.02;100.00;96266.41;5104004;28;19947;-72
2023/10/23 01:22:17;;;;;;;;;;;;;;;7.01;100.00;96267.41;5104249;28;20149;-72
2023/10/23 01:24:44;;;;;;;;;;;;;;;6.99;100.00;96263.41;5104964;28;19937;-72
2023/10/23 01:27:10;;;;;;;;;;;;;;;6.97;100.00;96276.66;5104686;28;19947;-72
2023/10/23 01:29:36;;;;;;;;;;;;;;;6.96;100.00;96274.22;5105196;28;20268;-80
2023/10/23 01:32:03;;;;;;;;;;;;;;;6.93;100.00;96282.44;5104340;28;20014;-71
2023/10/23 01:34:28;;;;;;;;;;;;;;;6.90;100.00;96271.41;5104244;28;20118;-71
2023/10/23 01:36:54;;;;;;;;;;;;;;;6.89;100.00;96276.84;5104788;28;19971;-71
2023/10/23 01:39:20;;;;;;;;;;;;;;;6.87;100.00;96278.84;5104192;28;20227;-71
2023/10/23 01:41:46;;;;;;;;;;;;;;;6.83;100.00;96272.41;5104211;28;20134;-71
2023/10/23 01:44:12;;;;;;;;;;;;;;;6.81;100.00;96272.59;5104688;28;19941;-71
2023/10/23 01:46:38;;;;;;;;;;;;;;;6.78;100.00;96272.97;5104127;28;19955;-71
2023/10/23 01:49:04;;;;;;;;;;;;;;;6.77;100.00;96270.59;5104948;28;19938;-74
2023/10/23 01:51:30;;;;;;;;;;;;;;;6.73;100.00;96267.56;5104125;28;19935;-72
2023/10/23 01:53:55;;;;;;;;;;;;;;;6.71;100.00;96270.38;5104083;28;20005;-71
2023/10/23 01:56:21;;;;;;;;;;;;;;;6.68;100.00;96268.19;5104816;28;20009;-71
2023/10/23 01:58:47;;;;;;;;;;;;;;;6.67;100.00;96269.16;5104024;28;19937;-72
2023/10/23 02:01:21;;;;;;;;;;;;;;;6.65;100.00;96259.94;5103983;28;19946;-72
2023/10/23 02:03:47;;;;;;;;;;;;;;;6.63;100.00;96256.72;5103978;28;19935;-71
2023/10/23 02:06:13;;;;;;;;;;;;;;;6.62;100.00;96262.94;5104010;28;20241;-81
2023/10/23 02:08:39;;;;;;;;;;;;;;;6.60;100.00;96260.53;5104667;28;19963;-80
2023/10/23 02:11:06;;;;;;;;;;;;;;;6.59;100.00;96258.91;5102811;28;20136;-81
2023/10/23 02:13:31;;;;;;;;;;;;;;;6.58;100.00;96251.31;5102856;28;19934;-81
2023/10/23 02:15:57;;;;;;;;;;;;;;;6.55;100.00;96260.34;5104230;28;20286;-82
2023/10/23 02:18:23;;;;;;;;;;;;;;;6.53;100.00;96264.13;5102820;28;19938;-81
2023/10/23 02:20:49;;;;;;;;;;;;;;;6.49;100.00;96256.72;5103856;28;19999;-82
2023/10/23 02:23:15;;;;;;;;;;;;;;;6.46;100.00;96257.09;5102956;28;20043;-81
2023/10/23 02:25:40;;;;;;;;;;;;;;;6.45;100.00;96260.69;5103854;28;19939;-81
2023/10/23 02:28:06;;;;;;;;;;;;;;;6.45;100.00;96265.13;5103074;28;19977;-71
2023/10/23 02:30:32;;;;;;;;;;;;;;;6.41;100.00;96256.09;5103676;28;20247;-71
2023/10/23 02:32:59;;;;;;;;;;;;;;;6.38;100.00;96254.66;5107621;28;19937;-72
2023/10/23 02:35:25;;;;;;;;;;;;;;;6.36;100.00;96256.66;5106335;28;19958;-71
2023/10/23 02:37:51;;;;;;;;;;;;;;;6.35;100.00;96257.66;5108019;28;19998;-71
2023/10/23 02:40:16;;;;;;;;;;;;;;;6.35;100.00;96262.88;5107379;28;20009;-71
2023/10/23 02:42:42;;;;;;;;;;;;;;;6.32;100.00;96270.25;5107379;28;19937;-74
2023/10/23 02:45:08;;;;;;;;;;;;;;;6.30;100.00;96265.28;5107345;28;19927;-72
2023/10/23 02:47:35;;;;;;;;;;;;;;;6.27;100.00;96269.03;5106628;28;20294;-81
2023/10/23 02:50:02;;;;;;;;;;;;;;;6.25;100.00;96275.44;5107170;28;19938;-82
2023/10/23 02:52:28;;;;;;;;;;;;;;;6.22;100.00;96271.44;5107222;28;19938;-82
2023/10/23 02:54:54;;;;;;;;;;;;;;;6.21;100.00;96262.00;5107114;28;19938;-81
2023/10/23 02:57:20;;;;;;;;;;;;;;;6.19;100.00;96264.00;5107040;28;19942;-81
2023/10/23 02:59:49;;;;;;;;;;;;;;;6.17;100.00;96268.59;5105996;28;20224;-81
2023/10/23 03:02:16;;;;;;;;;;;;;;;6.14;100.00;96261.19;5106978;28;19941;-71
2023/10/23 03:04:42;;;;;;;;;;;;;;;6.11;100.00;96266.78;5107445;28;20216;-71
2023/10/23 03:07:08;;;;;;;;;;;;;;;6.12;100.00;96273.59;5106841;28;19967;-71
2023/10/23 03:09:34;;;;;;;;;;;;;;;6.10;100.00;96276.38;5107401;28;19940;-71
2023/10/23 03:12:00;;;;;;;;;;;;;;;6.09;100.00;96269.59;5106836;28;19935;-72
2023/10/23 03:14:26;;;;;;;;;;;;;;;6.07;100.00;96255.97;5106798;28;19940;-71
2023/10/23 03:16:51;;;;;;;;;;;;;;;6.05;100.00;96262.38;5106774;28;20254;-72
2023/10/23 03:19:19;;;;;;;;;;;;;;;6.03;100.00;96261.75;5106680;28;19951;-73
2023/10/23 03:21:45;;;;;;;;;;;;;;;6.01;100.00;96261.16;5107452;28;20182;-74
2023/10/23 03:24:11;;;;;;;;;;;;;;;5.98;100.00;96251.09;5105449;28;19940;-75
2023/10/23 03:26:37;;;;;;;;;;;;;;;5.95;100.00;96249.69;5106535;28;19937;-75
2023/10/23 03:29:03;;;;;;;;;;;;;;;5.93;100.00;96251.66;5106384;28;19966;-75
2023/10/23 03:31:32;;;;;;;;;;;;;;;5.90;100.00;96250.25;5106985;28;20242;-76
2023/10/23 03:33:59;;;;;;;;;;;;;;;5.88;100.00;96247.03;5106289;28;19936;-75
2023/10/23 03:36:25;;;;;;;;;;;;;;;5.86;100.00;96251.63;5106329;28;20221;-74
2023/10/23 03:38:51;;;;;;;;;;;;;;;5.83;100.00;96241.59;5107077;28;19935;-82
2023/10/23 03:41:17;;;;;;;;;;;;;;;5.82;100.00;96241.81;5106266;28;19945;-74
2023/10/23 03:43:42;;;;;;;;;;;;;;;5.80;100.00;96251.59;5105563;28;19947;-74
2023/10/23 03:46:08;;;;;;;;;;;;;;;5.79;100.00;96250.78;5106652;28;19937;-75
2023/10/23 03:48:37;;;;;;;;;;;;;;;5.76;100.00;96250.38;5105998;28;19964;-75
2023/10/23 03:51:03;;;;;;;;;;;;;;;5.73;100.00;96251.53;5105997;28;19937;-75
2023/10/23 03:53:29;;;;;;;;;;;;;;;5.71;100.00;96253.53;5106010;28;20094;-75
2023/10/23 03:55:55;;;;;;;;;;;;;;;5.68;100.00;96251.31;5105672;28;19956;-74
2023/10/23 03:58:21;;;;;;;;;;;;;;;5.65;100.00;96252.50;5105911;28;19956;-80
2023/10/23 04:00:50;;;;;;;;;;;;;;;5.63;100.00;96248.50;5105834;28;19931;-77
2023/10/23 04:03:16;;;;;;;;;;;;;;;5.61;100.00;96258.28;5105391;28;19942;-77
2023/10/23 04:05:42;;;;;;;;;;;;;;;5.58;100.00;96259.47;5105754;28;19936;-77
2023/10/23 04:08:08;;;;;;;;;;;;;;;5.56;100.00;96256.25;5105892;28;19949;-77
2023/10/23 04:10:34;;;;;;;;;;;;;;;5.56;100.00;96255.44;5105697;28;19982;-77
2023/10/23 04:13:01;;;;;;;;;;;;;;;5.54;100.00;96252.22;5105250;28;19950;-77
2023/10/23 04:15:27;;;;;;;;;;;;;;;5.49;100.00;96248.41;5105420;28;19940;-80
2023/10/23 04:17:53;;;;;;;;;;;;;;;5.46;100.00;96241.00;5106108;28;19938;-77
2023/10/23 04:20:19;;;;;;;;;;;;;;;5.45;100.00;96239.38;5105474;28;19999;-76
2023/10/23 04:22:45;;;;;;;;;;;;;;;5.44;100.00;96242.19;5105086;28;19947;-76
2023/10/23 04:25:11;;;;;;;;;;;;;;;5.42;100.00;96237.16;5105418;28;20008;-77
2023/10/23 04:27:37;;;;;;;;;;;;;;;5.42;100.00;96237.16;5105792;28;19987;-76
2023/10/23 04:30:05;;;;;;;;;;;;;;;5.40;100.00;96238.34;5104437;28;20154;-76
2023/10/23 04:32:31;;;;;;;;;;;;;;;5.40;100.00;96240.97;5105660;28;19946;-74
2023/10/23 04:34:57;;;;;;;;;;;;;;;5.38;100.00;96237.75;5105693;28;19961;-73
2023/10/23 04:37:23;;;;;;;;;;;;;;;5.36;100.00;96237.13;5105383;28;19943;-83
2023/10/23 04:39:49;;;;;;;;;;;;;;;5.36;100.00;96245.72;5104030;28;19936;-82
2023/10/23 04:42:14;;;;;;;;;;;;;;;5.35;100.00;96230.31;5105854;28;20197;-83
2023/10/23 04:44:40;;;;;;;;;;;;;;;5.33;100.00;96232.28;5105033;28;19945;-82
2023/10/23 04:47:06;;;;;;;;;;;;;;;5.29;100.00;96218.84;5104981;28;19935;-83
2023/10/23 04:49:32;;;;;;;;;;;;;;;5.27;100.00;96215.66;5105405;28;20033;-83
2023/10/23 04:51:58;;;;;;;;;;;;;;;5.25;100.00;96221.06;5104895;28;19945;-75
2023/10/23 04:54:23;;;;;;;;;;;;;;;5.22;100.00;96216.22;5087113;28;19938;-83
2023/10/23 04:56:49;;;;;;;;;;;;;;;5.20;100.00;96217.41;5105080;28;19933;-83
2023/10/23 04:59:15;;;;;;;;;;;;;;;5.18;100.00;96219.41;5104382;28;19988;-83
2023/10/23 05:01:41;;;;;;;;;;;;;;;5.16;100.00;96219.56;5104754;28;19940;-83
2023/10/23 05:04:07;;;;;;;;;;;;;;;5.14;100.00;96205.97;5104985;28;19946;-83
2023/10/23 05:06:33;;;;;;;;;;;;;;;5.14;100.00;96202.56;5104662;28;19938;-84
2023/10/23 05:08:58;;;;;;;;;;;;;;;5.13;100.00;96198.38;5104601;28;19964;-83
2023/10/23 05:11:24;;;;;;;;;;;;;;;5.11;100.00;96200.34;5103542;28;19947;-75
2023/10/23 05:13:50;;;;;;;;;;;;;;;5.09;100.00;96197.94;5105157;28;19938;-81
2023/10/23 05:16:17;;;;;;;;;;;;;;;5.08;100.00;96201.50;5103263;28;20017;-81
2023/10/23 05:18:42;;;;;;;;;;;;;;;5.06;100.00;96206.91;5105015;28;19940;-80
2023/10/23 05:21:12;;;;;;;;;;;;;;;5.05;100.00;96213.09;5104438;28;19945;-80
2023/10/23 05:23:41;;;;;;;;;;;;;;;5.03;100.00;96217.69;5104417;28;19941;-80
2023/10/23 05:26:14;;;;;;;;;;;;;;;5.01;100.00;96219.66;5104391;28;20125;-80
2023/10/23 05:28:40;;;;;;;;;;;;;;;5.00;100.00;96202.47;5104935;28;19973;-72
2023/10/23 05:31:07;;;;;;;;;;;;;;;4.99;100.00;96210.44;5087250;28;19947;-74
2023/10/23 05:33:33;;;;;;;;;;;;;;;4.99;100.00;96220.84;5105141;28;19933;-74
2023/10/23 05:36:04;;;;;;;;;;;;;;;4.97;100.00;96228.81;5104484;28;19959;-74
2023/10/23 05:38:30;;;;;;;;;;;;;;;4.96;100.00;96229.84;5104378;28;19939;-74
2023/10/23 05:40:56;;;;;;;;;;;;;;;4.95;100.00;96243.00;5103156;28;19935;-74
2023/10/23 05:43:23;;;;;;;;;;;;;;;4.94;100.00;96237.00;5104226;28;20225;-74
2023/10/23 05:45:49;;;;;;;;;;;;;;;4.93;100.00;96245.78;5104212;28;19935;-74
2023/10/23 05:48:14;;;;;;;;;;;;;;;4.92;100.00;96235.59;5104084;28;20123;-83
2023/10/23 05:50:40;;;;;;;;;;;;;;;4.93;100.00;96244.97;5104161;28;19947;-80
2023/10/23 05:53:06;;;;;;;;;;;;;;;4.91;100.00;96237.38;5104134;28;19942;-80
2023/10/23 05:55:35;;;;;;;;;;;;;;;4.92;100.00;96239.00;5104603;28;19941;-81
2023/10/23 05:58:01;;;;;;;;;;;;;;;4.93;100.00;96234.59;5104076;28;19931;-81
2023/10/23 06:00:27;;;;;;;;;;;;;;;4.94;100.00;96244.81;5103751;28;19973;-80
2023/10/23 06:02:53;;;;;;;;;;;;;;;4.94;100.00;96238.81;5104554;28;20225;-81
2023/10/23 06:05:19;;;;;;;;;;;;;;;4.94;100.00;96241.41;5104008;28;19968;-72
2023/10/23 06:07:44;;;;;;;;;;;;;;;4.96;100.00;96236.81;5106856;28;20030;-72
2023/10/23 06:10:10;;;;;;;;;;;;;;;4.94;100.00;96233.63;5108505;28;20189;-72
2023/10/23 06:12:36;;;;;;;;;;;;;;;4.93;100.00;96235.38;5090676;28;19943;-72
2023/10/23 06:15:03;;;;;;;;;;;;;;;4.94;100.00;96234.41;5107930;28;19939;-73
2023/10/23 06:17:28;;;;;;;;;;;;;;;4.96;100.00;96240.22;5107728;28;19967;-72
2023/10/23 06:19:54;;;;;;;;;;;;;;;4.98;100.00;96234.84;5108441;28;19966;-72
2023/10/23 06:22:20;;;;;;;;;;;;;;;5.00;100.00;96238.88;5108511;28;19961;-72
2023/10/23 06:24:46;;;;;;;;;;;;;;;5.04;100.00;96247.06;5106772;28;19956;-80
2023/10/23 06:27:12;;;;;;;;;;;;;;;5.06;100.00;96242.47;5107697;28;20217;-75
2023/10/23 06:29:38;;;;;;;;;;;;;;;5.09;100.00;96248.13;5107532;28;20255;-75
2023/10/23 06:32:04;;;;;;;;;;;;;;;5.15;100.00;96241.38;5107563;28;20106;-75
2023/10/23 06:34:29;;;;;;;;;;;;;;;5.19;100.00;96229.59;5107488;28;19954;-74
2023/10/23 06:36:56;;;;;;;;;;;;;;;5.24;100.00;96229.84;5107757;28;19934;-75
2023/10/23 06:39:22;;;;;;;;;;;;;;;5.29;100.00;96227.47;5107946;28;20111;-75
2023/10/23 06:41:51;;;;;;;;;;;;;;;5.32;100.00;96218.50;5107407;28;19940;-72
2023/10/23 06:44:19;;;;;;;;;;;;;;;5.36;100.00;96203.31;5107361;28;20034;-72
2023/10/23 06:46:45;;;;;;;;;;;;;;;5.38;100.00;96199.53;5106988;28;19941;-77
2023/10/23 06:49:10;;;;;;;;;;;;;;;5.42;100.00;96207.75;5107161;28;19952;-78
2023/10/23 06:51:36;;;;;;;;;;;;;;;5.45;100.00;96202.97;5107250;28;19944;-78
2023/10/23 06:54:03;;;;;;;;;;;;;;;5.48;100.00;96200.00;5107175;28;19949;-78
2023/10/23 06:56:29;;;;;;;;;;;;;;;5.51;100.00;96206.59;5107718;28;19936;-77
2023/10/23 06:58:55;;;;;;;;;;;;;;;5.55;100.00;96209.63;5107689;28;19934;-78
2023/10/23 07:01:21;;;;;;;;;;;;;;;5.57;100.00;96216.25;5107038;28;19944;-73
2023/10/23 07:03:47;;;;;;;;;;;;;;;5.61;100.00;96227.09;5107591;28;19941;-74
2023/10/23 07:06:13;;;;;;;;;;;;;;;5.64;100.00;96230.09;5107477;28;19930;-75
2023/10/23 07:08:39;;;;;;;;;;;;;;;5.66;100.00;96227.28;5106893;28;19957;-75
2023/10/23 07:11:23;;;;;;;;;;;;;;;5.62;100.00;96213.88;5107124;28;19934;-75
2023/10/23 07:13:49;;;;;;;;;;;;;;;5.53;100.00;96209.81;5107127;28;20130;-74
2023/10/23 07:16:15;;;;;;;;;;;;;;;5.51;100.00;96217.00;5106582;28;19960;-75
2023/10/23 07:18:41;;;;;;;;;;;;;;;5.53;100.00;96215.03;5106269;28;20303;-72
2023/10/23 07:21:07;;;;;;;;;;;;;;;5.57;100.00;96215.44;5107509;28;19935;-71
2023/10/23 07:23:33;;;;;;;;;;;;;;;5.61;100.00;96214.06;5106362;28;20123;-78
2023/10/23 07:26:00;;;;;;;;;;;;;;;5.65;100.00;96210.88;5107381;28;19928;-78
2023/10/23 07:28:26;;;;;;;;;;;;;;;5.71;100.00;96196.28;5106985;28;19957;-78
2023/10/23 07:30:52;;;;;;;;;;;;;;;5.75;100.00;96197.50;5106435;28;19934;-78
2023/10/23 07:33:18;;;;;;;;;;;;;;;5.83;100.00;96194.75;5106415;28;19982;-78
2023/10/23 07:35:43;;;;;;;;;;;;;;;5.91;100.00;96188.59;5106483;28;19957;-78
2023/10/23 07:38:09;;;;;;;;;;;;;;;5.99;100.00;96187.66;5106334;28;19933;-79
2023/10/23 07:40:41;;;;;;;;;;;;;;;6.08;100.00;96181.25;5106186;28;19941;-79
2023/10/23 07:43:07;;;;;;;;;;;;;;;6.17;100.00;96172.25;5107032;28;19933;-80
2023/10/23 07:45:37;;;;;;;;;;;;;;;6.26;100.00;96172.91;5105112;28;19940;-82
2023/10/23 07:48:03;;;;;;;;;;;;;;;6.34;100.00;96169.31;5104898;28;19938;-80
2023/10/23 07:50:31;;;;;;;;;;;;;;;6.42;100.00;96153.50;5106921;28;20169;-80
2023/10/23 07:52:57;;;;;;;;;;;;;;;6.47;100.00;96153.72;5106036;28;19945;-80
2023/10/23 07:55:23;;;;;;;;;;;;;;;6.53;100.00;96150.31;5105678;28;19939;-75
2023/10/23 07:57:49;;;;;;;;;;;;;;;6.62;100.00;96151.72;5106267;28;19942;-72
2023/10/23 08:00:15;;;;;;;;;;;;;;;6.72;100.00;96148.72;5105887;28;20122;-78
2023/10/23 08:02:40;;;;;;;;;;;;;;;6.80;100.00;96132.84;5105841;28;19936;-78
2023/10/23 08:05:06;;;;;;;;;;;;;;;6.90;100.00;96145.47;5106271;28;19949;-78
2023/10/23 08:07:32;;;;;;;;;;;;;;;6.98;100.00;96152.31;5106262;28;19942;-77
2023/10/23 08:09:58;;;;;;;;;;;;;;;7.05;100.00;96166.13;5104508;28;19956;-77
2023/10/23 08:12:24;;;;;;;;;;;;;;;7.10;100.00;96167.13;5088382;28;20003;-78
2023/10/23 08:14:50;;;;;;;;;;;;;;;7.14;100.00;96177.16;5105571;28;19948;-72
2023/10/23 08:17:16;;;;;;;;;;;;;;;7.09;100.00;96182.97;5104751;28;20165;-80
2023/10/23 08:19:42;;;;;;;;;;;;;;;7.09;100.00;96175.16;5105427;28;19939;-82
2023/10/23 08:22:08;;;;;;;;;;;;;;;7.07;100.00;96172.72;5105437;28;19932;-81
2023/10/23 08:24:34;;;;;;;;;;;;;;;7.04;100.00;96165.34;5105806;28;19938;-81
2023/10/23 08:27:00;;;;;;;;;;;;;;;7.06;100.00;96158.13;5105376;28;20103;-80
2023/10/23 08:29:28;;;;;;;;;;;;;;;7.10;100.00;96161.13;5105138;28;19957;-80
2023/10/23 08:31:54;;;;;;;;;;;;;;;7.19;100.00;96164.31;5104948;28;19936;-74
2023/10/23 08:34:21;;;;;;;;;;;;;;;7.29;100.00;96162.09;5103988;28;20275;-80
2023/10/23 08:36:47;;;;;;;;;;;;;;;7.40;100.00;96166.69;5105128;28;19957;-75
2023/10/23 08:39:14;;;;;;;;;;;;;;;7.49;100.00;96173.25;5103988;28;19957;-75
2023/10/23 08:41:40;;;;;;;;;;;;;;;7.55;100.00;96156.00;5105079;28;20133;-75
2023/10/23 08:44:06;;;;;;;;;;;;;;;7.61;100.00;96146.56;5105806;28;19949;-76
2023/10/23 08:46:33;;;;;;;;;;;;;;;7.66;100.00;96147.53;5105237;28;19935;-74
2023/10/23 08:49:02;;;;;;;;;;;;;;;7.72;100.00;96144.09;5105106;28;20133;-75
2023/10/23 08:51:29;;;;;;;;;;;;;;;7.78;100.00;96139.84;5104894;28;19961;-75
2023/10/23 08:54:00;;;;;;;;;;;;;;;7.84;100.00;96141.63;5105380;28;19945;-78
2023/10/23 08:56:26;;;;;;;;;;;;;;;7.92;100.00;96144.00;5105409;28;19937;-78
2023/10/23 08:58:57;;;;;;;;;;;;;;;8.01;100.00;96138.56;5104755;28;19944;-78
2023/10/23 09:01:23;;;;;;;;;;;;;;;8.11;100.00;96137.09;5104659;28;19935;-78
2023/10/23 09:03:48;;;;;;;;;;;;;;;8.21;100.00;96138.44;5104689;28;19934;-78
2023/10/23 09:06:20;;;;;;;;;;;;;;;8.31;100.00;96139.56;5105367;28;19989;-78
2023/10/23 09:08:46;;;;;;;;;;;;;;;8.44;100.00;96137.91;5104808;28;19953;-75
2023/10/23 09:11:12;;;;;;;;;;;;;;;8.55;100.00;96139.88;5105151;28;19955;-76
2023/10/23 09:13:39;;;;;;;;;;;;;;;8.65;100.00;96145.41;5104135;28;19938;-81
2023/10/23 09:16:06;;;;;;;;;;;;;;;8.74;100.00;96146.75;5104317;28;19968;-81
2023/10/23 09:18:53;;;;;;;;;;;;;;;8.80;100.00;96149.50;5104458;28;19949;-80
2023/10/23 09:21:19;;;;;;;;;;;;;;;8.83;100.00;96154.31;5104972;28;19939;-81
2023/10/23 09:24:00;;;;;;;;;;;;;;;8.86;100.00;96159.13;5104623;28;19948;-81
2023/10/23 09:26:26;;;;;;;;;;;;;;;8.84;100.00;96154.13;5105098;28;20037;-81
2023/10/23 09:28:52;;;;;;;;;;;;;;;8.86;100.00;96159.13;5105048;28;20134;-75
2023/10/23 09:31:19;;;;;;;;;;;;;;;8.84;100.00;96148.88;5087091;28;19936;-76
2023/10/23 09:33:45;;;;;;;;;;;;;;;8.86;100.00;96148.66;5104237;28;19956;-75
2023/10/23 09:36:12;;;;;;;;;;;;;;;8.87;100.00;96145.84;5104147;28;19953;-75
2023/10/23 09:38:39;;;;;;;;;;;;;;;8.91;100.00;96144.41;5104182;28;19939;-76
2023/10/23 09:41:12;;;;;;;;;;;;;;;8.98;100.00;96144.31;5103209;28;19946;-76
2023/10/23 09:43:43;;;;;;;;;;;;;;;9.06;100.00;96154.53;5104394;28;20239;-76
2023/10/23 09:46:10;;;;;;;;;;;;;;;9.17;100.00;96149.59;5104154;28;19935;-77
2023/10/23 09:48:38;;;;;;;;;;;;;;;9.25;100.00;96146.72;5102895;28;19947;-81
2023/10/23 09:51:04;;;;;;;;;;;;;;;9.37;100.00;96147.59;5104794;28;19932;-76
2023/10/23 09:53:31;;;;;;;;;;;;;;;9.46;100.00;96145.47;5062119;28;19938;-76
2023/10/23 09:55:58;;;;;;;;;;;;;;;9.55;100.00;96142.38;5062792;28;19938;-76
2023/10/23 09:58:29;;;;;;;;;;;;;;;9.66;100.00;96140.00;5062003;28;19944;-76
2023/10/23 10:00:55;;;;;;;;;;;;;;;9.75;100.00;96138.72;5061957;28;20149;-75
2023/10/23 10:03:22;;;;;;;;;;;;;;;9.85;100.00;96130.31;5061829;28;19945;-76
2023/10/23 10:05:53;;;;;;;;;;;;;;;9.95;100.00;96141.06;5062421;28;19942;-76
2023/10/23 10:08:21;;;;;;;;;;;;;;;10.05;100.00;96125.63;5062354;28;19945;-76
2023/10/23 10:10:48;;;;;;;;;;;;;;;10.14;100.00;96131.34;5045938;28;19943;-76
2023/10/23 10:13:15;;;;;;;;;;;;;;;10.19;100.00;96123.66;5061843;28;19940;-76
2023/10/23 10:15:41;;;;;;;;;;;;;;;10.23;100.00;96127.41;5062029;28;20252;-76
2023/10/23 10:18:07;;;;;;;;;;;;;;;10.28;100.00;96122.28;5062512;28;19945;-76
2023/10/23 10:20:33;;;;;;;;;;;;;;;10.32;100.00;96123.47;5061723;28;19984;-76
2023/10/23 10:23:10;;;;;;;;;;;;;;;10.36;100.00;96123.84;5062562;28;19942;-76
2023/10/23 10:25:37;;;;;;;;;;;;;;;10.40;100.00;96111.09;5061919;28;19941;-77
2023/10/23 10:28:04;;;;;;;;;;;;;;;10.46;100.00;96107.56;5044952;28;19946;-75
2023/10/23 10:30:37;;;;;;;;;;;;;;;10.52;100.00;96109.25;5043401;28;20252;-76
2023/10/23 10:33:07;;;;;;;;;;;;;;;10.59;100.00;96103.94;5102564;28;20149;-76
2023/10/23 10:35:33;;;;;;;;;;;;;;;10.66;100.00;96105.41;5103570;28;19974;-76
2023/10/23 10:38:00;;;;;;;;;;;;;;;10.74;100.00;96093.81;5102573;28;19945;-76
2023/10/23 10:40:26;;;;;;;;;;;;;;;10.81;100.00;96088.44;5104115;28;19964;-76
2023/10/23 10:42:54;;;;;;;;;;;;;;;10.86;100.00;96083.31;5104151;28;19942;-80
2023/10/23 10:45:20;;;;;;;;;;;;;;;10.91;100.00;96080.81;5102496;28;20228;-76
2023/10/23 10:47:46;;;;;;;;;;;;;;;10.96;100.00;96065.16;5102939;28;19949;-76
2023/10/23 10:50:12;;;;;;;;;;;;;;;11.02;100.00;96056.38;5103985;28;20181;-76
2023/10/23 10:52:39;;;;;;;;;;;;;;;11.07;100.00;96048.63;5103717;28;19948;-76
2023/10/23 10:55:05;;;;;;;;;;;;;;;11.12;100.00;96045.31;5107425;28;19938;-76
2023/10/23 10:57:31;;;;;;;;;;;;;;;11.18;100.00;96050.44;5107094;28;20136;-75
2023/10/23 10:59:58;;;;;;;;;;;;;;;11.23;100.00;96041.06;5107103;28;19936;-76
2023/10/23 11:02:23;;;;;;;;;;;;;;;11.27;100.00;96032.47;5107551;28;19938;-75
2023/10/23 11:04:49;;;;;;;;;;;;;;;11.32;100.00;96027.34;5106932;28;19939;-74
2023/10/23 11:07:22;;;;;;;;;;;;;;;11.35;100.00;96028.72;5106900;28;20122;-74
2023/10/23 11:09:49;;;;;;;;;;;;;;;11.40;100.00;96014.88;5107277;28;20066;-74
2023/10/23 11:12:18;;;;;;;;;;;;;;;11.44;100.00;96005.50;5107597;28;19942;-74
2023/10/23 11:14:46;;;;;;;;;;;;;;;11.49;100.00;95990.66;5106656;28;19947;-74
2023/10/23 11:17:12;;;;;;;;;;;;;;;11.53;100.00;95994.41;5106308;28;20264;-74
2023/10/23 11:19:41;;;;;;;;;;;;;;;11.62;100.00;96004.53;5106666;28;19944;-76
2023/10/23 11:22:14;;;;;;;;;;;;;;;11.68;100.00;95995.72;5106615;28;19937;-75
2023/10/23 11:24:40;;;;;;;;;;;;;;;11.73;100.00;95980.03;5106620;28;20078;-74
2023/10/23 11:27:06;;;;;;;;;;;;;;;11.75;100.00;95988.47;5107374;28;19930;-75
2023/10/23 11:29:38;;;;;;;;;;;;;;;11.75;100.00;95989.28;5106394;28;19958;-74
2023/10/23 11:32:06;;;;;;;;;;;;;;;11.74;100.00;95977.19;5106435;28;19946;-74
2023/10/23 11:34:32;;;;;;;;;;;;;;;11.73;100.00;95980.03;5106697;28;19957;-74
2023/10/23 11:37:01;;;;;;;;;;;;;;;11.71;100.00;95988.16;5106577;28;19936;-76
2023/10/23 11:39:28;;;;;;;;;;;;;;;11.68;100.00;95982.59;5105224;28;20131;-75
2023/10/23 11:41:54;;;;;;;;;;;;;;;11.67;100.00;95979.13;5107075;28;20102;-75
2023/10/23 11:44:20;;;;;;;;;;;;;;;11.65;100.00;95973.31;5106196;28;19945;-75
2023/10/23 11:46:46;;;;;;;;;;;;;;;11.64;100.00;95982.25;5106174;28;19933;-76
2023/10/23 11:49:12;;;;;;;;;;;;;;;11.63;100.00;95961.47;5106784;28;19956;-76
2023/10/23 11:51:38;;;;;;;;;;;;;;;11.62;100.00;95965.94;5106023;28;19933;-76
2023/10/23 11:54:04;;;;;;;;;;;;;;;11.61;100.00;95959.06;5106354;28;19935;-75
2023/10/23 11:56:30;;;;;;;;;;;;;;;11.64;100.00;95966.50;5106742;28;19935;-76
2023/10/23 11:58:56;;;;;;;;;;;;;;;11.68;100.00;95966.81;5105615;28;20165;-78
2023/10/23 12:01:21;;;;;;;;;;;;;;;11.69;100.00;95973.66;5105802;28;19944;-81
2023/10/23 12:03:47;;;;;;;;;;;;;;;11.67;100.00;95988.84;5106331;28;20219;-81
2023/10/23 12:06:13;;;;;;;;;;;;;;;11.66;100.00;95992.53;5105467;28;19952;-81
2023/10/23 12:08:39;;;;;;;;;;;;;;;11.67;100.00;95986.22;5105360;28;19942;-80
2023/10/23 12:11:05;;;;;;;;;;;;;;;11.69;100.00;95990.22;5105486;28;19981;-80
2023/10/23 12:13:31;;;;;;;;;;;;;;;11.69;100.00;95992.84;5105589;28;19964;-78
2023/10/23 12:15:57;;;;;;;;;;;;;;;11.69;100.00;95984.97;5105728;28;20257;-78
2023/10/23 12:18:26;;;;;;;;;;;;;;;11.64;100.00;95984.09;5105952;28;19954;-79
2023/10/23 12:20:52;;;;;;;;;;;;;;;11.61;100.00;95974.81;5105432;28;19941;-79
2023/10/23 12:23:17;;;;;;;;;;;;;;;11.57;100.00;95971.09;5105363;28;19968;-79
2023/10/23 12:25:43;;;;;;;;;;;;;;;11.55;100.00;95962.66;5105826;28;19931;-79
2023/10/23 12:28:09;;;;;;;;;;;;;;;11.48;100.00;95946.25;5105321;28;19949;-79
2023/10/23 12:30:35;;;;;;;;;;;;;;;11.45;100.00;95937.00;5105204;28;19963;-79
2023/10/23 12:33:03;;;;;;;;;;;;;;;11.42;100.00;95924.34;5105995;28;19943;-73
2023/10/23 12:35:28;;;;;;;;;;;;;;;11.46;100.00;95920.22;5104080;28;19982;-79
2023/10/23 12:37:54;;;;;;;;;;;;;;;11.46;100.00;95888.72;5104271;28;19935;-80
2023/10/23 12:40:20;;;;;;;;;;;;;;;11.49;100.00;95876.97;5103900;28;19946;-80
2023/10/23 12:42:46;;;;;;;;;;;;;;;11.52;100.00;95879.09;5105051;28;19940;-80